createdAt,value
2019-01-26T00:05:02.914Z,18.93
2019-01-26T00:07:31.496Z,19.00
2019-01-26T00:09:59.930Z,20.13
2019-01-26T00:12:27.414Z,22.73
2019-01-26T00:14:55.871Z,17.43
2019-01-26T00:20:36.352Z,20.30
2019-01-26T00:23:02.928Z,21.87
2019-01-26T00:28:26.935Z,22.33
2019-01-26T00:30:55.041Z,25.00
2019-01-26T00:33:23.225Z,19.60
2019-01-26T00:36:31.493Z,21.37
2019-01-26T00:41:54.316Z,20.93
2019-01-26T00:44:22.461Z,18.13
2019-01-26T00:46:51.089Z,21.63
2019-01-26T00:52:14.420Z,22.07
2019-01-26T00:55:22.953Z,20.40
2019-01-26T00:57:51.574Z,19.73
2019-01-26T01:00:59.703Z,18.10
2019-01-26T01:03:27.449Z,17.87
2019-01-26T01:05:54.936Z,21.97
2019-01-26T01:11:32.058Z,17.53
2019-01-26T01:14:39.843Z,23.97
2019-01-26T01:22:57.869Z,15.70
2019-01-26T01:26:06.425Z,17.87
2019-01-26T01:28:34.586Z,19.03
2019-01-26T01:31:02.413Z,20.47
2019-01-26T01:34:10.948Z,22.77
2019-01-26T01:36:39.486Z,20.23
2019-01-26T01:42:16.677Z,19.70
2019-01-26T01:44:45.230Z,22.23
2019-01-26T01:50:07.826Z,19.60
2019-01-26T01:52:36.239Z,18.70
2019-01-26T01:55:44.682Z,21.53
2019-01-26T02:01:08.032Z,22.10
2019-01-26T02:03:36.188Z,24.17
2019-01-26T02:06:44.290Z,23.43
2019-01-26T02:09:12.839Z,23.70
2019-01-26T02:12:21.411Z,24.37
2019-01-26T02:14:49.982Z,26.03
2019-01-26T02:17:18.582Z,22.00
2019-01-26T02:22:55.465Z,22.90
2019-01-26T02:25:23.511Z,24.23
2019-01-26T02:27:51.302Z,26.83
2019-01-26T02:31:00.685Z,22.03
2019-01-26T02:33:29.161Z,27.00
2019-01-26T02:35:57.610Z,29.00
2019-01-26T02:38:25.988Z,27.27
2019-01-26T02:40:54.063Z,28.50
2019-01-26T02:43:22.247Z,24.30
2019-01-26T02:45:49.676Z,31.17
2019-01-26T02:48:17.121Z,27.17
2019-01-26T02:50:45.248Z,29.43
2019-01-26T02:53:13.012Z,29.27
2019-01-26T02:55:41.106Z,29.27
2019-01-26T02:58:09.525Z,30.60
2019-01-26T03:00:37.667Z,27.50
2019-01-26T03:03:06.145Z,26.87
2019-01-26T03:05:33.911Z,29.77
2019-01-26T03:08:02.311Z,24.27
2019-01-26T03:10:30.738Z,30.07
2019-01-26T03:12:59.225Z,32.63
2019-01-26T03:15:27.353Z,30.97
2019-01-26T03:17:55.753Z,31.13
2019-01-26T03:20:23.510Z,33.00
2019-01-26T03:22:51.580Z,32.73
2019-01-26T03:25:20.091Z,26.17
2019-01-26T03:27:48.262Z,30.13
2019-01-26T03:30:36.555Z,27.87
2019-01-26T03:35:41.077Z,29.97
2019-01-26T03:38:08.963Z,27.43
2019-01-26T03:44:11.924Z,29.90
2019-01-26T03:46:40.061Z,27.23
2019-01-26T03:49:08.252Z,26.17
2019-01-26T03:51:36.687Z,25.80
2019-01-26T03:54:05.127Z,26.53
2019-01-26T03:56:33.302Z,27.40
2019-01-26T03:59:20.797Z,24.33
2019-01-26T04:01:48.984Z,26.03
2019-01-26T04:04:17.175Z,21.70
2019-01-26T04:06:45.611Z,24.97
2019-01-26T04:09:13.957Z,24.03
2019-01-26T04:11:41.716Z,27.50
2019-01-26T04:17:04.561Z,20.63
2019-01-26T04:19:32.649Z,21.00
2019-01-26T04:22:00.906Z,26.27
2019-01-26T04:24:28.907Z,25.07
2019-01-26T04:26:57.095Z,26.43
2019-01-26T04:29:24.867Z,24.97
2019-01-26T04:31:53.366Z,20.80
2019-01-26T04:34:21.467Z,22.90
2019-01-26T04:36:49.922Z,24.63
2019-01-26T04:39:18.397Z,24.47
2019-01-26T04:41:46.570Z,18.93
2019-01-26T04:47:10.067Z,22.63
2019-01-26T04:50:18.200Z,14.70
2019-01-26T04:52:46.218Z,18.57
2019-01-26T04:55:54.775Z,16.50
2019-01-26T04:58:23.007Z,17.80
2019-01-26T05:00:50.778Z,14.90
2019-01-26T05:03:18.811Z,14.00
2019-01-26T05:05:46.231Z,13.77
2019-01-26T05:08:14.812Z,16.10
2019-01-26T05:13:38.353Z,18.13
2019-01-26T05:16:46.439Z,14.83
2019-01-26T05:19:14.556Z,13.63
2019-01-26T05:21:42.703Z,14.50
2019-01-26T05:24:10.718Z,17.57
2019-01-26T05:26:39.156Z,14.00
2019-01-26T05:29:07.272Z,14.87
2019-01-26T05:32:15.490Z,14.47
2019-01-26T05:34:43.544Z,13.30
2019-01-26T05:40:09.695Z,16.00
2019-01-26T05:42:37.743Z,14.57
2019-01-26T05:45:37.334Z,15.00
2019-01-26T05:48:05.858Z,15.00
2019-01-26T05:50:34.246Z,16.13
2019-01-26T05:53:42.703Z,14.97
2019-01-26T05:56:10.558Z,16.10
2019-01-26T06:01:47.081Z,15.53
2019-01-26T06:07:24.027Z,9.43
2019-01-26T06:09:52.538Z,12.33
2019-01-26T06:12:20.522Z,11.23
2019-01-26T06:14:48.734Z,12.43
2019-01-26T06:17:16.586Z,14.63
2019-01-26T06:22:53.886Z,18.03
2019-01-26T06:25:22.367Z,14.97
2019-01-26T06:27:50.518Z,12.93
2019-01-26T06:30:59.538Z,12.93
2019-01-26T06:33:28.027Z,19.20
2019-01-26T06:36:15.270Z,17.33
2019-01-26T06:38:43.012Z,14.50
2019-01-26T06:41:11.404Z,19.17
2019-01-26T06:43:39.668Z,15.43
2019-01-26T06:46:07.345Z,12.27
2019-01-26T06:48:35.454Z,13.13
2019-01-26T06:51:03.809Z,17.50
2019-01-26T06:53:31.950Z,16.10
2019-01-26T06:56:19.506Z,16.53
2019-01-26T06:58:47.919Z,14.13
2019-01-26T07:01:16.001Z,17.23
2019-01-26T07:03:46.039Z,14.17
2019-01-26T07:06:34.102Z,12.87
2019-01-26T07:09:02.713Z,9.43
2019-01-26T07:11:30.476Z,14.27
2019-01-26T07:13:58.169Z,11.73
2019-01-26T07:16:26.377Z,13.80
2019-01-26T07:18:55.238Z,13.00
2019-01-26T07:21:23.408Z,12.20
2019-01-26T07:23:51.588Z,13.43
2019-01-26T07:26:59.673Z,12.07
2019-01-26T07:29:28.198Z,14.37
2019-01-26T07:31:55.652Z,11.40
2019-01-26T07:34:23.829Z,10.67
2019-01-26T07:36:51.884Z,13.00
2019-01-26T07:39:20.052Z,10.53
2019-01-26T07:41:47.837Z,11.97
2019-01-26T07:44:15.917Z,16.23
2019-01-26T07:46:44.057Z,13.57
2019-01-26T07:49:12.174Z,11.93
2019-01-26T07:51:40.249Z,17.57
2019-01-26T07:54:08.660Z,11.87
2019-01-26T07:56:36.879Z,7.20
2019-01-26T07:59:44.727Z,5.87
2019-01-26T08:02:12.844Z,8.37
2019-01-26T08:04:41.001Z,5.67
2019-01-26T08:07:08.710Z,7.80
2019-01-26T08:09:37.198Z,8.00
2019-01-26T08:12:45.301Z,5.57
2019-01-26T08:15:16.224Z,6.53
2019-01-26T08:18:24.414Z,5.50
2019-01-26T08:20:52.812Z,7.00
2019-01-26T08:24:01.312Z,6.67
2019-01-26T08:26:29.844Z,11.47
2019-01-26T08:28:57.618Z,5.87
2019-01-26T08:31:25.862Z,10.73
2019-01-26T08:33:53.623Z,10.77
2019-01-26T08:36:22.320Z,6.07
2019-01-26T08:38:50.496Z,8.90
2019-01-26T08:41:18.677Z,5.83
2019-01-26T08:43:47.161Z,4.80
2019-01-26T08:46:15.308Z,9.33
2019-01-26T08:48:43.422Z,8.53
2019-01-26T08:51:11.683Z,5.63
2019-01-26T08:53:39.796Z,4.73
2019-01-26T08:56:08.078Z,3.63
2019-01-26T08:58:36.465Z,5.90
2019-01-26T09:01:04.697Z,6.60
2019-01-26T09:03:51.982Z,3.70
2019-01-26T09:06:39.669Z,3.50
2019-01-26T09:09:10.157Z,5.93
2019-01-26T09:11:38.718Z,8.80
2019-01-26T09:14:06.939Z,5.97
2019-01-26T09:16:35.028Z,5.30
2019-01-26T09:19:02.816Z,7.10
2019-01-26T09:21:30.177Z,5.03
2019-01-26T09:23:58.451Z,11.47
2019-01-26T09:26:26.258Z,2.67
2019-01-26T09:28:54.510Z,6.60
2019-01-26T09:31:22.636Z,4.27
2019-01-26T09:33:50.454Z,2.73
2019-01-26T09:36:18.217Z,3.53
2019-01-26T09:38:46.451Z,8.70
2019-01-26T09:41:15.028Z,2.63
2019-01-26T09:43:43.689Z,3.97
2019-01-26T09:46:11.518Z,2.83
2019-01-26T09:48:46.094Z,3.43
2019-01-26T09:51:10.399Z,3.10
2019-01-26T09:53:38.569Z,4.90
2019-01-26T09:56:13.099Z,3.47
2019-01-26T09:58:41.635Z,2.70
2019-01-26T10:01:10.172Z,3.37
2019-01-26T10:03:38.314Z,3.47
2019-01-26T10:06:06.738Z,2.17
2019-01-26T10:08:34.194Z,4.07
2019-01-26T10:11:02.611Z,2.07
2019-01-26T10:13:30.758Z,1.47
2019-01-26T10:15:58.929Z,5.97
2019-01-26T10:18:27.269Z,45.80
2019-01-26T10:20:55.878Z,22.97
2019-01-26T10:23:24.428Z,3.97
2019-01-26T10:25:52.617Z,9.70
2019-01-26T10:28:20.988Z,3.47
2019-01-26T10:31:07.893Z,13.33
2019-01-26T10:33:36.364Z,1.53
2019-01-26T10:36:23.357Z,1.67
2019-01-26T10:38:52.869Z,5.63
2019-01-26T10:41:40.598Z,2.20
2019-01-26T10:44:09.252Z,1.50
2019-01-26T10:46:37.605Z,2.60
2019-01-26T10:49:05.358Z,3.80
2019-01-26T10:51:34.040Z,3.40
2019-01-26T10:54:01.929Z,2.80
2019-01-26T10:56:29.982Z,2.20
2019-01-26T10:58:58.147Z,1.57
2019-01-26T11:01:26.353Z,1.40
2019-01-26T11:03:54.107Z,2.67
2019-01-26T11:06:21.929Z,4.03
2019-01-26T11:08:49.771Z,2.73
2019-01-26T11:11:17.623Z,4.47
2019-01-26T11:13:46.309Z,1.40
2019-01-26T11:16:14.530Z,3.40
2019-01-26T11:18:43.097Z,2.97
2019-01-26T11:21:10.533Z,1.87
2019-01-26T11:23:38.725Z,1.10
2019-01-26T11:26:06.597Z,1.80
2019-01-26T11:28:35.117Z,1.63
2019-01-26T11:31:03.263Z,3.20
2019-01-26T11:33:31.389Z,3.30
2019-01-26T11:35:59.482Z,2.70
2019-01-26T11:38:27.708Z,3.20
2019-01-26T11:40:55.473Z,1.77
2019-01-26T11:43:23.356Z,2.20
2019-01-26T11:46:11.063Z,1.40
2019-01-26T11:48:42.162Z,3.03
2019-01-26T11:51:29.917Z,4.43
2019-01-26T11:53:58.054Z,4.17
2019-01-26T11:56:45.331Z,4.40
2019-01-26T11:59:13.308Z,2.73
2019-01-26T12:02:00.916Z,3.93
2019-01-26T12:04:48.017Z,7.43
2019-01-26T12:07:18.052Z,6.30
2019-01-26T12:09:45.869Z,6.63
2019-01-26T12:12:13.673Z,4.73
2019-01-26T12:14:42.205Z,10.73
2019-01-26T12:17:10.396Z,4.13
2019-01-26T12:19:38.561Z,4.43
2019-01-26T12:22:07.145Z,1.97
2019-01-26T12:24:35.637Z,6.47
2019-01-26T12:27:04.168Z,3.77
2019-01-26T12:29:32.708Z,8.30
2019-01-26T12:32:00.879Z,4.67
2019-01-26T12:34:29.398Z,3.00
2019-01-26T12:36:57.153Z,3.37
2019-01-26T12:39:25.740Z,4.87
2019-01-26T12:41:54.443Z,4.63
2019-01-26T12:44:22.843Z,3.03
2019-01-26T12:46:51.397Z,3.30
2019-01-26T12:49:19.480Z,2.63
2019-01-26T12:51:47.639Z,2.20
2019-01-26T12:54:15.484Z,3.27
2019-01-26T12:56:44.056Z,2.67
2019-01-26T12:59:11.788Z,3.47
2019-01-26T13:01:39.950Z,9.10
2019-01-26T13:04:08.002Z,6.23
2019-01-26T13:06:35.490Z,6.83
2019-01-26T13:09:45.570Z,7.83
2019-01-26T13:12:14.223Z,3.77
2019-01-26T13:14:42.865Z,4.40
2019-01-26T13:17:11.027Z,2.70
2019-01-26T13:19:39.121Z,3.90
2019-01-26T13:22:07.243Z,2.00
2019-01-26T13:24:35.439Z,1.73
2019-01-26T13:27:04.239Z,2.07
2019-01-26T13:29:32.092Z,2.57
2019-01-26T13:32:00.155Z,2.43
2019-01-26T13:34:28.414Z,2.63
2019-01-26T13:36:56.501Z,3.73
2019-01-26T13:39:25.021Z,3.30
2019-01-26T13:41:53.188Z,3.43
2019-01-26T13:44:21.072Z,3.63
2019-01-26T13:46:49.445Z,1.83
2019-01-26T13:49:17.638Z,2.97
2019-01-26T13:51:45.322Z,3.30
2019-01-26T13:54:13.084Z,3.17
2019-01-26T13:56:41.158Z,3.13
2019-01-26T13:59:09.348Z,2.47
2019-01-26T14:01:37.509Z,2.03
2019-01-26T14:04:05.284Z,2.57
2019-01-26T14:06:33.780Z,2.27
2019-01-26T14:11:38.091Z,1.43
2019-01-26T14:14:05.987Z,1.90
2019-01-26T14:16:33.663Z,1.47
2019-01-26T14:19:01.445Z,2.30
2019-01-26T14:21:29.606Z,2.73
2019-01-26T14:23:57.085Z,1.83
2019-01-26T14:26:25.669Z,2.43
2019-01-26T14:28:54.183Z,1.73
2019-01-26T14:31:21.925Z,3.60
2019-01-26T14:33:50.109Z,1.97
2019-01-26T14:36:18.511Z,3.40
2019-01-26T14:38:47.048Z,2.77
2019-01-26T14:41:14.870Z,2.43
2019-01-26T14:43:42.928Z,4.03
2019-01-26T14:46:10.708Z,2.47
2019-01-26T14:48:38.824Z,3.00
2019-01-26T14:51:07.390Z,2.33
2019-01-26T14:53:35.126Z,3.70
2019-01-26T14:56:03.003Z,2.33
2019-01-26T14:58:30.767Z,3.43
2019-01-26T15:00:59.310Z,3.37
2019-01-26T15:03:29.095Z,2.17
2019-01-26T15:08:51.978Z,2.30
2019-01-26T15:16:49.117Z,5.17
2019-01-26T15:22:26.553Z,1.57
2019-01-26T15:25:35.084Z,3.00
2019-01-26T15:28:03.197Z,2.47
2019-01-26T15:33:29.120Z,1.60
2019-01-26T15:35:57.204Z,2.30
2019-01-26T15:38:25.800Z,2.57
2019-01-26T15:40:54.034Z,2.10
2019-01-26T15:46:18.256Z,1.90
2019-01-26T15:48:46.541Z,1.60
2019-01-26T15:51:14.324Z,2.67
2019-01-26T15:53:42.551Z,2.70
2019-01-26T15:56:10.706Z,4.40
2019-01-26T15:58:38.753Z,4.50
2019-01-26T16:01:07.103Z,11.63
2019-01-26T16:06:31.219Z,4.03
2019-01-26T16:08:59.420Z,3.20
2019-01-26T16:11:27.295Z,3.10
2019-01-26T16:13:55.539Z,2.23
2019-01-26T16:16:24.246Z,5.53
2019-01-26T16:19:32.803Z,14.23
2019-01-26T16:25:15.936Z,15.93
2019-01-26T16:27:44.173Z,42.67
2019-01-26T16:30:14.467Z,28.83
2019-01-26T16:32:42.268Z,29.17
2019-01-26T16:35:11.245Z,23.80
2019-01-26T16:37:39.453Z,15.93
2019-01-26T16:40:10.040Z,17.43
2019-01-26T16:42:38.152Z,5.07
2019-01-26T16:45:09.354Z,3.43
2019-01-26T16:47:37.886Z,4.43
2019-01-26T16:50:08.754Z,4.67
2019-01-26T16:52:36.539Z,7.97
2019-01-26T16:55:05.420Z,8.83
2019-01-26T16:57:33.955Z,9.77
2019-01-26T17:00:02.580Z,13.13
2019-01-26T17:02:30.666Z,11.87
2019-01-26T17:04:58.798Z,14.30
2019-01-26T17:10:01.094Z,16.27
2019-01-26T17:12:28.879Z,12.27
2019-01-26T17:18:05.236Z,14.93
2019-01-26T17:20:35.046Z,16.63
2019-01-26T17:23:03.117Z,12.93
2019-01-26T17:25:30.932Z,15.80
2019-01-26T17:30:53.083Z,15.97
2019-01-26T17:34:01.584Z,13.97
2019-01-26T17:36:29.859Z,13.50
2019-01-26T17:41:54.274Z,12.80
2019-01-26T17:50:23.853Z,14.47
2019-01-26T17:56:06.444Z,13.90
2019-01-26T17:58:34.294Z,12.63
2019-01-26T18:04:17.206Z,11.97
2019-01-26T18:07:25.009Z,15.13
2019-01-26T18:09:53.730Z,13.07
2019-01-26T18:12:33.762Z,16.43
2019-01-26T18:15:42.213Z,13.87
2019-01-26T18:18:50.685Z,11.77
2019-01-26T18:21:19.213Z,14.63
2019-01-26T18:23:47.546Z,15.60
2019-01-26T18:29:29.895Z,14.07
2019-01-26T18:31:57.985Z,32.23
2019-01-26T18:34:25.452Z,38.27
2019-01-26T18:40:42.061Z,22.07
2019-01-26T18:46:18.913Z,13.80
2019-01-26T18:51:55.444Z,18.57
2019-01-26T18:54:23.712Z,15.40
2019-01-26T18:56:51.645Z,14.83
2019-01-26T19:00:00.170Z,11.53
2019-01-26T19:02:28.831Z,11.43
2019-01-26T19:05:39.720Z,9.70
2019-01-26T19:08:07.232Z,8.80
2019-01-26T19:10:35.066Z,9.40
2019-01-26T19:13:15.310Z,9.43
2019-01-26T19:15:43.036Z,8.37
2019-01-26T19:20:46.041Z,9.87
2019-01-26T19:23:54.569Z,10.03
2019-01-26T19:26:22.822Z,11.83
2019-01-26T19:28:50.739Z,14.07
2019-01-26T19:34:27.821Z,10.17
2019-01-26T19:39:25.704Z,10.43
2019-01-26T19:41:53.875Z,5.60
2019-01-26T19:47:30.395Z,4.03
2019-01-26T19:50:38.950Z,8.23
2019-01-26T19:53:07.437Z,5.90
2019-01-26T19:58:44.816Z,4.77
2019-01-26T20:01:53.302Z,3.93
2019-01-26T20:04:21.166Z,2.93
2019-01-26T20:09:36.196Z,2.77
2019-01-26T20:12:16.290Z,3.23
2019-01-26T20:14:56.460Z,3.23
2019-01-26T20:17:24.357Z,1.80
2019-01-26T20:19:52.714Z,3.20
2019-01-26T20:22:21.455Z,5.10
2019-01-26T20:24:49.731Z,6.80
2019-01-26T20:27:17.811Z,8.90
2019-01-26T20:30:25.954Z,7.97
2019-01-26T20:32:54.269Z,5.80
2019-01-26T20:35:22.466Z,8.50
2019-01-26T20:38:31.004Z,13.67
2019-01-26T20:40:58.474Z,9.37
2019-01-26T20:46:35.503Z,9.30
2019-01-26T20:49:03.339Z,9.40
2019-01-26T20:52:11.595Z,11.70
2019-01-26T21:00:28.871Z,13.60
2019-01-26T21:02:57.016Z,10.30
2019-01-26T21:05:25.620Z,12.20
2019-01-26T21:07:53.814Z,14.43
2019-01-26T21:10:34.534Z,14.30
2019-01-26T21:13:03.047Z,10.77
2019-01-26T21:16:11.646Z,12.93
2019-01-26T21:18:39.505Z,12.67
2019-01-26T21:24:03.088Z,10.20
2019-01-26T21:29:06.030Z,12.60
2019-01-26T21:34:28.678Z,9.67
2019-01-26T21:37:36.543Z,10.93
2019-01-26T21:43:15.969Z,13.57
2019-01-26T21:45:44.148Z,14.67
2019-01-26T21:48:52.695Z,14.40
2019-01-26T21:54:29.299Z,21.67
2019-01-26T21:56:57.726Z,13.87
2019-01-26T22:02:21.179Z,17.40
2019-01-26T22:04:49.399Z,17.70
2019-01-26T22:07:57.962Z,21.17
2019-01-26T22:10:26.127Z,15.03
2019-01-26T22:13:13.481Z,16.33
2019-01-26T22:15:41.971Z,19.17
2019-01-26T22:21:04.492Z,16.60
2019-01-26T22:24:12.696Z,14.13
2019-01-26T22:26:40.871Z,14.60
2019-01-26T22:29:09.442Z,17.07
2019-01-26T22:31:37.555Z,18.73
2019-01-26T22:34:45.658Z,22.97
2019-01-26T22:37:53.840Z,20.30
2019-01-26T22:40:26.826Z,17.13
2019-01-26T22:42:55.041Z,17.13
2019-01-26T22:45:23.380Z,14.00
2019-01-26T22:47:51.290Z,14.10
2019-01-26T22:50:59.686Z,13.40
2019-01-26T22:56:36.642Z,13.43
2019-01-26T23:05:47.382Z,17.97
2019-01-26T23:08:34.494Z,17.33
2019-01-26T23:11:25.239Z,16.90
2019-01-26T23:14:31.211Z,15.77
2019-01-26T23:17:37.750Z,16.87
2019-01-26T23:20:30.091Z,17.27
2019-01-26T23:23:36.038Z,16.30
2019-01-26T23:26:42.553Z,16.53
2019-01-26T23:29:49.094Z,15.43
2019-01-26T23:32:16.847Z,14.20
2019-01-26T23:34:45.321Z,15.53
2019-01-26T23:37:13.506Z,17.10
2019-01-26T23:39:41.287Z,19.50
2019-01-26T23:42:09.822Z,19.87
2019-01-26T23:44:37.946Z,16.83
2019-01-26T23:50:20.972Z,16.63
2019-01-26T23:52:48.736Z,21.17
2019-01-26T23:55:17.131Z,18.07
2019-01-26T23:57:45.306Z,20.87
